sensor_id;sensor_type;location;lat;lon;timestamp;pressure;altitude;pressure_sealevel;temperature;humidity
9239;BME280;4654;43.242;27.976;2022-07-09T00:00:11;98889.81;;;23.67;58.47
9239;BME280;4654;43.242;27.976;2022-07-09T00:02:38;98875.16;;;23.61;58.12
9239;BME280;4654;43.242;27.976;2022-07-09T00:05:05;98891.28;;;23.61;57.89
9239;BME280;4654;43.242;27.976;2022-07-09T00:07:32;98882.34;;;23.53;57.93
9239;BME280;4654;43.242;27.976;2022-07-09T00:10:01;98877.38;;;23.55;57.89
9239;BME280;4654;43.242;27.976;2022-07-09T00:12:27;98880.41;;;23.54;57.66
9239;BME280;4654;43.242;27.976;2022-07-09T00:14:54;98883.91;;;23.58;57.42
9239;BME280;4654;43.242;27.976;2022-07-09T00:17:21;98880.88;;;23.59;57.59
9239;BME280;4654;43.242;27.976;2022-07-09T00:19:48;98874.38;;;23.60;57.50
9239;BME280;4654;43.242;27.976;2022-07-09T00:22:15;98871.34;;;23.62;57.69
9239;BME280;4654;43.242;27.976;2022-07-09T00:24:42;98879.41;;;23.62;57.45
9239;BME280;4654;43.242;27.976;2022-07-09T00:27:10;98875.53;;;23.59;57.26
9239;BME280;4654;43.242;27.976;2022-07-09T00:29:37;98878.94;;;23.56;57.38
9239;BME280;4654;43.242;27.976;2022-07-09T00:32:04;98875.53;;;23.59;57.31
9239;BME280;4654;43.242;27.976;2022-07-09T00:34:31;98880.53;;;23.61;57.05
9239;BME280;4654;43.242;27.976;2022-07-09T00:36:59;98881.34;;;23.65;57.26
9239;BME280;4654;43.242;27.976;2022-07-09T00:39:27;98882.91;;;23.66;57.15
9239;BME280;4654;43.242;27.976;2022-07-09T00:42:02;98872.91;;;23.66;56.55
9239;BME280;4654;43.242;27.976;2022-07-09T00:44:30;98873.69;;;23.67;57.07
9239;BME280;4654;43.242;27.976;2022-07-09T00:46:57;98873.31;;;23.68;56.83
9239;BME280;4654;43.242;27.976;2022-07-09T00:49:25;98878.28;;;23.66;56.60
9239;BME280;4654;43.242;27.976;2022-07-09T00:51:54;98880.56;;;23.64;56.34
9239;BME280;4654;43.242;27.976;2022-07-09T00:54:23;98884.78;;;23.65;56.64
9239;BME280;4654;43.242;27.976;2022-07-09T00:56:50;98882.50;;;23.64;56.67
9239;BME280;4654;43.242;27.976;2022-07-09T00:59:19;98882.03;;;23.58;56.72
9239;BME280;4654;43.242;27.976;2022-07-09T01:01:48;98881.56;;;23.53;56.69
9239;BME280;4654;43.242;27.976;2022-07-09T01:04:15;98876.59;;;23.55;57.00
9239;BME280;4654;43.242;27.976;2022-07-09T01:06:42;98872.78;;;23.56;57.39
9239;BME280;4654;43.242;27.976;2022-07-09T01:09:10;98871.63;;;23.53;57.36
9239;BME280;4654;43.242;27.976;2022-07-09T01:11:37;98871.63;;;23.57;57.07
9239;BME280;4654;43.242;27.976;2022-07-09T01:14:03;98867.81;;;23.58;56.94
9239;BME280;4654;43.242;27.976;2022-07-09T01:16:31;98872.47;;;23.61;57.17
9239;BME280;4654;43.242;27.976;2022-07-09T01:19:00;98858.84;;;23.43;57.06
9239;BME280;4654;43.242;27.976;2022-07-09T01:21:29;98867.38;;;23.52;57.54
9239;BME280;4654;43.242;27.976;2022-07-09T01:23:56;98867.66;;;23.44;57.21
9239;BME280;4654;43.242;27.976;2022-07-09T01:26:23;98863.81;;;23.41;57.68
9239;BME280;4654;43.242;27.976;2022-07-09T01:28:50;98866.09;;;23.43;57.63
9239;BME280;4654;43.242;27.976;2022-07-09T01:31:17;98860.28;;;23.37;57.87
9239;BME280;4654;43.242;27.976;2022-07-09T01:33:44;98855.59;;;23.31;57.40
9239;BME280;4654;43.242;27.976;2022-07-09T01:36:11;98857.88;;;23.29;57.81
9239;BME280;4654;43.242;27.976;2022-07-09T01:38:40;98866.69;;;23.29;57.68
9239;BME280;4654;43.242;27.976;2022-07-09T01:41:06;98856.69;;;23.26;57.74
9239;BME280;4654;43.242;27.976;2022-07-09T01:43:33;98868.22;;;23.30;57.88
9239;BME280;4654;43.242;27.976;2022-07-09T01:46:01;98867.06;;;23.28;57.66
9239;BME280;4654;43.242;27.976;2022-07-09T01:48:28;98864.06;;;23.33;57.85
9239;BME280;4654;43.242;27.976;2022-07-09T01:50:55;98867.16;;;23.35;57.51
9239;BME280;4654;43.242;27.976;2022-07-09T01:53:24;98866.78;;;23.36;57.38
9239;BME280;4654;43.242;27.976;2022-07-09T01:55:52;98865.59;;;23.34;57.09
9239;BME280;4654;43.242;27.976;2022-07-09T01:58:19;98862.09;;;23.30;57.06
9239;BME280;4654;43.242;27.976;2022-07-09T02:00:46;98853.34;;;23.33;57.47
9239;BME280;4654;43.242;27.976;2022-07-09T02:03:14;98844.47;;;23.29;57.39
9239;BME280;4654;43.242;27.976;2022-07-09T02:05:41;98846.00;;;23.30;57.30
9239;BME280;4654;43.242;27.976;2022-07-09T02:08:07;98850.59;;;23.29;57.63
9239;BME280;4654;43.242;27.976;2022-07-09T02:10:34;98841.72;;;23.25;57.80
9239;BME280;4654;43.242;27.976;2022-07-09T02:13:03;98832.13;;;23.24;57.58
9239;BME280;4654;43.242;27.976;2022-07-09T02:15:29;98854.38;;;23.25;57.80
9239;BME280;4654;43.242;27.976;2022-07-09T02:17:56;98839.03;;;23.25;57.97
9239;BME280;4654;43.242;27.976;2022-07-09T02:20:24;98831.72;;;23.22;58.28
9239;BME280;4654;43.242;27.976;2022-07-09T02:22:51;98835.13;;;23.19;58.49
9239;BME280;4654;43.242;27.976;2022-07-09T02:25:18;98846.59;;;23.16;58.62
9239;BME280;4654;43.242;27.976;2022-07-09T02:27:45;98854.63;;;23.16;58.78
9239;BME280;4654;43.242;27.976;2022-07-09T02:30:13;98845.03;;;23.15;58.73
9239;BME280;4654;43.242;27.976;2022-07-09T02:32:40;98851.94;;;23.16;59.11
9239;BME280;4654;43.242;27.976;2022-07-09T02:35:07;98830.84;;;23.15;59.39
9239;BME280;4654;43.242;27.976;2022-07-09T02:37:34;98839.56;;;23.08;59.52
9239;BME280;4654;43.242;27.976;2022-07-09T02:40:01;98852.91;;;23.05;59.62
9239;BME280;4654;43.242;27.976;2022-07-09T02:42:28;98849.06;;;23.02;59.89
9239;BME280;4654;43.242;27.976;2022-07-09T02:44:55;98849.06;;;23.02;59.75
9239;BME280;4654;43.242;27.976;2022-07-09T02:47:23;98855.22;;;23.06;59.98
9239;BME280;4654;43.242;27.976;2022-07-09T02:49:50;98853.72;;;23.09;59.92
9239;BME280;4654;43.242;27.976;2022-07-09T02:52:17;98863.44;;;23.17;59.58
9239;BME280;4654;43.242;27.976;2022-07-09T02:54:44;98856.91;;;23.14;59.61
9239;BME280;4654;43.242;27.976;2022-07-09T02:57:11;98851.63;;;23.21;59.65
9239;BME280;4654;43.242;27.976;2022-07-09T02:59:38;98844.41;;;23.25;59.70
9239;BME280;4654;43.242;27.976;2022-07-09T03:02:05;98853.06;;;23.41;59.60
9239;BME280;4654;43.242;27.976;2022-07-09T03:04:33;98860.41;;;23.48;59.21
9239;BME280;4654;43.242;27.976;2022-07-09T03:07:00;98852.03;;;23.49;59.51
9239;BME280;4654;43.242;27.976;2022-07-09T03:09:28;98859.28;;;23.49;59.48
9239;BME280;4654;43.242;27.976;2022-07-09T03:11:55;98857.41;;;23.53;59.50
9239;BME280;4654;43.242;27.976;2022-07-09T03:14:22;98854.22;;;23.44;59.78
9239;BME280;4654;43.242;27.976;2022-07-09T03:16:48;98864.22;;;23.43;59.84
9239;BME280;4654;43.242;27.976;2022-07-09T03:19:15;98855.78;;;23.45;60.19
9239;BME280;4654;43.242;27.976;2022-07-09T03:21:44;98849.44;;;23.60;59.67
9239;BME280;4654;43.242;27.976;2022-07-09T03:24:10;98838.31;;;23.87;59.00
9239;BME280;4654;43.242;27.976;2022-07-09T03:26:38;98839.19;;;24.38;57.61
9239;BME280;4654;43.242;27.976;2022-07-09T03:29:05;98841.47;;;24.79;57.11
9239;BME280;4654;43.242;27.976;2022-07-09T03:31:32;98843.41;;;25.36;55.45
9239;BME280;4654;43.242;27.976;2022-07-09T03:34:00;98840.03;;;25.63;54.19
9239;BME280;4654;43.242;27.976;2022-07-09T03:36:27;98838.09;;;25.57;54.59
9239;BME280;4654;43.242;27.976;2022-07-09T03:38:55;98847.28;;;25.49;54.67
9239;BME280;4654;43.242;27.976;2022-07-09T03:41:22;98852.00;;;25.69;53.85
9239;BME280;4654;43.242;27.976;2022-07-09T03:43:49;98849.72;;;25.78;54.00
9239;BME280;4654;43.242;27.976;2022-07-09T03:46:16;98845.16;;;25.86;53.82
9239;BME280;4654;43.242;27.976;2022-07-09T03:48:43;98856.78;;;26.25;53.01
9239;BME280;4654;43.242;27.976;2022-07-09T03:51:10;98846.41;;;26.90;51.74
9239;BME280;4654;43.242;27.976;2022-07-09T03:53:37;98857.03;;;27.63;49.59
9239;BME280;4654;43.242;27.976;2022-07-09T03:56:06;98857.16;;;28.21;48.49
9239;BME280;4654;43.242;27.976;2022-07-09T03:58:33;98857.50;;;28.30;47.67
9239;BME280;4654;43.242;27.976;2022-07-09T04:01:01;98850.19;;;28.30;47.45
9239;BME280;4654;43.242;27.976;2022-07-09T04:03:28;98858.59;;;27.60;48.59
9239;BME280;4654;43.242;27.976;2022-07-09T04:05:55;98852.56;;;27.25;49.83
9239;BME280;4654;43.242;27.976;2022-07-09T04:08:21;98863.75;;;27.27;50.04
9239;BME280;4654;43.242;27.976;2022-07-09T04:10:48;98859.84;;;27.31;49.71
9239;BME280;4654;43.242;27.976;2022-07-09T04:13:17;98862.59;;;27.07;49.95
9239;BME280;4654;43.242;27.976;2022-07-09T04:15:44;98856.06;;;26.59;50.60
9239;BME280;4654;43.242;27.976;2022-07-09T04:18:11;98864.81;;;25.97;52.30
9239;BME280;4654;43.242;27.976;2022-07-09T04:20:38;98864.25;;;25.57;52.78
9239;BME280;4654;43.242;27.976;2022-07-09T04:23:05;98863.38;;;25.35;53.51
9239;BME280;4654;43.242;27.976;2022-07-09T04:25:31;98868.53;;;25.04;54.86
9239;BME280;4654;43.242;27.976;2022-07-09T04:27:58;98869.94;;;24.87;55.47
9239;BME280;4654;43.242;27.976;2022-07-09T04:30:27;98871.38;;;24.74;55.79
9239;BME280;4654;43.242;27.976;2022-07-09T04:32:54;98849.31;;;24.51;55.96
9239;BME280;4654;43.242;27.976;2022-07-09T04:35:21;98869.78;;;24.66;55.68
9239;BME280;4654;43.242;27.976;2022-07-09T04:37:48;98873.28;;;24.67;55.62
9239;BME280;4654;43.242;27.976;2022-07-09T04:40:14;98862.47;;;24.63;55.35
9239;BME280;4654;43.242;27.976;2022-07-09T04:42:41;98859.19;;;24.84;55.54
9239;BME280;4654;43.242;27.976;2022-07-09T04:45:09;98865.78;;;24.97;55.28
9239;BME280;4654;43.242;27.976;2022-07-09T04:47:38;98872.53;;;25.24;54.37
9239;BME280;4654;43.242;27.976;2022-07-09T04:50:05;98859.28;;;25.69;53.38
9239;BME280;4654;43.242;27.976;2022-07-09T04:52:32;98874.81;;;26.07;52.62
9239;BME280;4654;43.242;27.976;2022-07-09T04:54:59;98861.75;;;26.05;52.03
9239;BME280;4654;43.242;27.976;2022-07-09T04:57:25;98861.81;;;26.30;51.26
9239;BME280;4654;43.242;27.976;2022-07-09T04:59:52;98863.75;;;26.54;51.06
9239;BME280;4654;43.242;27.976;2022-07-09T05:02:19;98855.66;;;27.13;49.91
9239;BME280;4654;43.242;27.976;2022-07-09T05:04:48;98856.66;;;27.61;48.15
9239;BME280;4654;43.242;27.976;2022-07-09T05:07:14;98846.28;;;28.82;46.14
9239;BME280;4654;43.242;27.976;2022-07-09T05:09:41;98838.28;;;30.35;43.50
9239;BME280;4654;43.242;27.976;2022-07-09T05:12:09;98830.34;;;30.70;42.42
9239;BME280;4654;43.242;27.976;2022-07-09T05:14:36;98832.44;;;30.63;42.54
9239;BME280;4654;43.242;27.976;2022-07-09T05:17:03;98833.78;;;30.48;43.20
9239;BME280;4654;43.242;27.976;2022-07-09T05:19:31;98841.66;;;31.89;40.92
9239;BME280;4654;43.242;27.976;2022-07-09T05:21:59;98829.19;;;33.48;38.56
9239;BME280;4654;43.242;27.976;2022-07-09T05:24:26;98814.19;;;34.43;36.67
9239;BME280;4654;43.242;27.976;2022-07-09T05:26:53;98832.00;;;33.97;36.74
9239;BME280;4654;43.242;27.976;2022-07-09T05:29:20;98841.09;;;31.98;39.53
9239;BME280;4654;43.242;27.976;2022-07-09T05:31:49;98830.28;;;33.22;37.39
9239;BME280;4654;43.242;27.976;2022-07-09T05:34:16;98827.41;;;34.57;36.23
9239;BME280;4654;43.242;27.976;2022-07-09T05:36:43;98833.19;;;34.46;36.30
9239;BME280;4654;43.242;27.976;2022-07-09T05:39:11;98828.50;;;35.70;34.31
9239;BME280;4654;43.242;27.976;2022-07-09T05:41:38;98827.03;;;35.78;35.13
9239;BME280;4654;43.242;27.976;2022-07-09T05:44:05;98826.47;;;35.61;34.50
9239;BME280;4654;43.242;27.976;2022-07-09T05:46:32;98824.31;;;36.66;33.91
9239;BME280;4654;43.242;27.976;2022-07-09T05:48:59;98810.16;;;38.86;30.60
9239;BME280;4654;43.242;27.976;2022-07-09T05:51:26;98810.44;;;39.70;29.86
9239;BME280;4654;43.242;27.976;2022-07-09T05:53:53;98822.63;;;39.11;30.53
9239;BME280;4654;43.242;27.976;2022-07-09T05:56:21;98816.34;;;39.10;29.91
9239;BME280;4654;43.242;27.976;2022-07-09T05:58:48;98829.66;;;36.87;31.68
9239;BME280;4654;43.242;27.976;2022-07-09T06:01:15;98824.75;;;35.76;33.85
9239;BME280;4654;43.242;27.976;2022-07-09T06:03:42;98797.72;;;36.36;32.92
9239;BME280;4654;43.242;27.976;2022-07-09T06:06:09;98812.97;;;36.37;32.98
9239;BME280;4654;43.242;27.976;2022-07-09T06:08:36;98821.34;;;35.94;33.31
9239;BME280;4654;43.242;27.976;2022-07-09T06:11:03;98814.91;;;35.88;32.96
9239;BME280;4654;43.242;27.976;2022-07-09T06:13:32;98795.47;;;36.43;33.14
9239;BME280;4654;43.242;27.976;2022-07-09T06:15:58;98792.31;;;35.44;34.17
9239;BME280;4654;43.242;27.976;2022-07-09T06:18:25;98794.50;;;35.80;33.01
9239;BME280;4654;43.242;27.976;2022-07-09T06:20:52;98792.28;;;35.14;33.46
9239;BME280;4654;43.242;27.976;2022-07-09T06:23:19;98803.31;;;34.30;34.09
9239;BME280;4654;43.242;27.976;2022-07-09T06:25:47;98799.38;;;34.19;35.79
9239;BME280;4654;43.242;27.976;2022-07-09T06:28:13;98797.41;;;34.78;34.45
9239;BME280;4654;43.242;27.976;2022-07-09T06:30:42;98786.34;;;34.82;34.96
9239;BME280;4654;43.242;27.976;2022-07-09T06:33:09;98790.28;;;33.19;35.70
9239;BME280;4654;43.242;27.976;2022-07-09T06:35:36;98792.00;;;32.36;36.94
9239;BME280;4654;43.242;27.976;2022-07-09T06:38:03;98775.31;;;33.52;36.17
9239;BME280;4654;43.242;27.976;2022-07-09T06:40:30;98786.94;;;33.11;36.39
9239;BME280;4654;43.242;27.976;2022-07-09T06:42:57;98793.69;;;32.78;37.35
9239;BME280;4654;43.242;27.976;2022-07-09T06:45:23;98795.31;;;32.44;37.64
9239;BME280;4654;43.242;27.976;2022-07-09T06:47:52;98775.66;;;32.52;37.41
9239;BME280;4654;43.242;27.976;2022-07-09T06:50:19;98791.53;;;33.55;36.09
9239;BME280;4654;43.242;27.976;2022-07-09T06:52:46;98787.47;;;32.78;37.13
9239;BME280;4654;43.242;27.976;2022-07-09T06:55:13;98778.22;;;32.27;37.99
9239;BME280;4654;43.242;27.976;2022-07-09T06:57:40;98772.94;;;30.26;40.90
9239;BME280;4654;43.242;27.976;2022-07-09T07:00:07;98789.22;;;29.06;43.69
9239;BME280;4654;43.242;27.976;2022-07-09T07:02:34;98770.03;;;27.99;45.36
9239;BME280;4654;43.242;27.976;2022-07-09T07:05:03;98811.56;;;27.54;46.30
9239;BME280;4654;43.242;27.976;2022-07-09T07:07:31;98780.06;;;27.20;47.02
9239;BME280;4654;43.242;27.976;2022-07-09T07:09:58;98782.75;;;27.27;47.57
9239;BME280;4654;43.242;27.976;2022-07-09T07:12:25;98796.59;;;27.32;47.86
9239;BME280;4654;43.242;27.976;2022-07-09T07:14:52;98806.28;;;27.23;47.68
9239;BME280;4654;43.242;27.976;2022-07-09T07:17:19;98789.19;;;27.54;47.77
9239;BME280;4654;43.242;27.976;2022-07-09T07:19:45;98793.00;;;27.60;47.13
9239;BME280;4654;43.242;27.976;2022-07-09T07:22:14;98804.72;;;27.29;47.23
9239;BME280;4654;43.242;27.976;2022-07-09T07:24:41;98796.72;;;26.84;47.61
9239;BME280;4654;43.242;27.976;2022-07-09T07:27:08;98790.88;;;27.13;48.45
9239;BME280;4654;43.242;27.976;2022-07-09T07:29:35;98799.69;;;27.31;47.71
9239;BME280;4654;43.242;27.976;2022-07-09T07:32:02;98802.63;;;27.68;46.49
9239;BME280;4654;43.242;27.976;2022-07-09T07:34:29;98813.75;;;27.87;46.77
9239;BME280;4654;43.242;27.976;2022-07-09T07:36:55;98812.16;;;27.93;47.26
9239;BME280;4654;43.242;27.976;2022-07-09T07:39:24;98813.69;;;28.49;45.72
9239;BME280;4654;43.242;27.976;2022-07-09T07:41:52;98824.22;;;28.40;45.76
9239;BME280;4654;43.242;27.976;2022-07-09T07:44:19;98828.38;;;28.48;45.77
9239;BME280;4654;43.242;27.976;2022-07-09T07:46:47;98821.06;;;28.45;46.07
9239;BME280;4654;43.242;27.976;2022-07-09T07:49:14;98822.34;;;28.33;45.46
9239;BME280;4654;43.242;27.976;2022-07-09T07:51:41;98846.53;;;27.89;46.02
9239;BME280;4654;43.242;27.976;2022-07-09T07:54:08;98821.63;;;27.50;46.80
9239;BME280;4654;43.242;27.976;2022-07-09T07:56:36;98825.88;;;27.44;48.19
9239;BME280;4654;43.242;27.976;2022-07-09T07:59:05;98832.03;;;27.41;47.50
9239;BME280;4654;43.242;27.976;2022-07-09T08:01:32;98829.06;;;27.22;47.56
9239;BME280;4654;43.242;27.976;2022-07-09T08:03:59;98828.69;;;27.03;48.37
9239;BME280;4654;43.242;27.976;2022-07-09T08:06:26;98810.94;;;27.12;48.39
9239;BME280;4654;43.242;27.976;2022-07-09T08:08:53;98819.00;;;27.23;48.21
9239;BME280;4654;43.242;27.976;2022-07-09T08:11:20;98797.06;;;27.10;48.72
9239;BME280;4654;43.242;27.976;2022-07-09T08:13:48;98817.06;;;27.26;48.87
9239;BME280;4654;43.242;27.976;2022-07-09T08:16:15;98816.56;;;27.56;48.19
9239;BME280;4654;43.242;27.976;2022-07-09T08:18:42;98814.72;;;27.39;48.03
9239;BME280;4654;43.242;27.976;2022-07-09T08:21:09;98825.03;;;27.61;48.50
9239;BME280;4654;43.242;27.976;2022-07-09T08:23:36;98808.34;;;27.87;48.02
9239;BME280;4654;43.242;27.976;2022-07-09T08:26:30;98807.75;;;28.17;47.56
9239;BME280;4654;43.242;27.976;2022-07-09T08:28:57;98821.22;;;28.20;46.99
9239;BME280;4654;43.242;27.976;2022-07-09T08:31:24;98814.38;;;28.09;47.09
9239;BME280;4654;43.242;27.976;2022-07-09T08:33:51;98812.84;;;28.08;47.23
9239;BME280;4654;43.242;27.976;2022-07-09T08:36:18;98806.03;;;27.86;47.31
9239;BME280;4654;43.242;27.976;2022-07-09T08:38:45;98811.78;;;27.88;47.51
9239;BME280;4654;43.242;27.976;2022-07-09T08:41:15;98789.66;;;28.10;47.06
9239;BME280;4654;43.242;27.976;2022-07-09T08:43:49;98810.63;;;28.47;46.20
9239;BME280;4654;43.242;27.976;2022-07-09T08:46:17;98808.41;;;28.38;46.09
9239;BME280;4654;43.242;27.976;2022-07-09T08:48:44;98801.81;;;28.39;46.34
9239;BME280;4654;43.242;27.976;2022-07-09T08:51:12;98811.50;;;28.37;46.79
9239;BME280;4654;43.242;27.976;2022-07-09T08:53:41;98816.78;;;27.96;46.56
9239;BME280;4654;43.242;27.976;2022-07-09T08:56:08;98814.75;;;28.11;46.84
9239;BME280;4654;43.242;27.976;2022-07-09T08:58:36;98806.75;;;27.93;46.96
9239;BME280;4654;43.242;27.976;2022-07-09T09:01:05;98813.19;;;28.13;47.52
9239;BME280;4654;43.242;27.976;2022-07-09T09:03:33;98817.41;;;28.14;47.41
9239;BME280;4654;43.242;27.976;2022-07-09T09:06:03;98808.09;;;28.29;46.81
9239;BME280;4654;43.242;27.976;2022-07-09T09:08:34;98797.09;;;28.47;46.06
9239;BME280;4654;43.242;27.976;2022-07-09T09:11:02;98815.66;;;28.48;45.90
9239;BME280;4654;43.242;27.976;2022-07-09T09:13:30;98807.34;;;28.18;46.09
9239;BME280;4654;43.242;27.976;2022-07-09T09:16:06;98808.19;;;28.08;46.72
9239;BME280;4654;43.242;27.976;2022-07-09T09:18:34;98808.09;;;28.29;45.99
9239;BME280;4654;43.242;27.976;2022-07-09T09:21:03;98807.03;;;28.60;46.03
9239;BME280;4654;43.242;27.976;2022-07-09T09:23:39;98801.09;;;28.35;45.96
9239;BME280;4654;43.242;27.976;2022-07-09T09:26:14;98802.84;;;27.98;46.38
9239;BME280;4654;43.242;27.976;2022-07-09T09:28:49;98802.78;;;28.12;46.53
9239;BME280;4654;43.242;27.976;2022-07-09T09:31:22;98804.53;;;28.39;45.91
9239;BME280;4654;43.242;27.976;2022-07-09T09:33:50;98798.75;;;28.37;46.11
9239;BME280;4654;43.242;27.976;2022-07-09T09:36:30;98795.34;;;28.23;45.47
9239;BME280;4654;43.242;27.976;2022-07-09T09:39:15;98803.97;;;28.04;45.30
9239;BME280;4654;43.242;27.976;2022-07-09T09:41:43;98799.59;;;28.24;45.84
9239;BME280;4654;43.242;27.976;2022-07-09T09:44:12;98806.88;;;28.37;45.99
9239;BME280;4654;43.242;27.976;2022-07-09T09:46:42;98804.59;;;28.73;45.60
9239;BME280;4654;43.242;27.976;2022-07-09T09:49:11;98800.97;;;28.89;45.64
9239;BME280;4654;43.242;27.976;2022-07-09T09:51:45;98789.09;;;28.80;45.38
9239;BME280;4654;43.242;27.976;2022-07-09T09:54:14;98795.25;;;28.37;45.38
9239;BME280;4654;43.242;27.976;2022-07-09T09:56:41;98814.47;;;28.53;45.28
9239;BME280;4654;43.242;27.976;2022-07-09T09:59:09;98790.94;;;28.46;45.11
9239;BME280;4654;43.242;27.976;2022-07-09T10:01:37;98792.59;;;28.26;45.24
9239;BME280;4654;43.242;27.976;2022-07-09T10:04:06;98789.34;;;27.98;46.06
9239;BME280;4654;43.242;27.976;2022-07-09T10:06:33;98785.63;;;27.78;45.43
9239;BME280;4654;43.242;27.976;2022-07-09T10:09:01;98773.84;;;28.05;45.18
9239;BME280;4654;43.242;27.976;2022-07-09T10:11:38;98780.63;;;28.31;45.38
9239;BME280;4654;43.242;27.976;2022-07-09T10:14:05;98783.63;;;28.43;45.03
9239;BME280;4654;43.242;27.976;2022-07-09T10:16:34;98781.00;;;28.33;44.57
9239;BME280;4654;43.242;27.976;2022-07-09T10:19:01;98779.81;;;28.37;44.84
9239;BME280;4654;43.242;27.976;2022-07-09T10:21:37;98778.00;;;28.64;45.37
9239;BME280;4654;43.242;27.976;2022-07-09T10:24:06;98786.31;;;28.83;44.55
9239;BME280;4654;43.242;27.976;2022-07-09T10:26:51;98788.84;;;28.64;44.22
9239;BME280;4654;43.242;27.976;2022-07-09T10:29:22;98785.69;;;28.69;44.49
9239;BME280;4654;43.242;27.976;2022-07-09T10:31:49;98768.59;;;28.79;44.14
9239;BME280;4654;43.242;27.976;2022-07-09T10:34:48;98790.53;;;28.91;43.60
9239;BME280;4654;43.242;27.976;2022-07-09T10:37:30;98770.22;;;29.10;43.32
9239;BME280;4654;43.242;27.976;2022-07-09T10:40:07;98780.16;;;29.20;43.57
9239;BME280;4654;43.242;27.976;2022-07-09T10:42:34;98782.56;;;29.11;44.77
9239;BME280;4654;43.242;27.976;2022-07-09T10:45:01;98772.47;;;28.78;43.76
9239;BME280;4654;43.242;27.976;2022-07-09T10:47:36;98785.31;;;28.67;44.26
9239;BME280;4654;43.242;27.976;2022-07-09T10:50:04;98779.31;;;28.93;43.98
9239;BME280;4654;43.242;27.976;2022-07-09T10:52:33;98776.31;;;29.17;44.06
9239;BME280;4654;43.242;27.976;2022-07-09T10:55:00;98771.06;;;29.03;43.59
9239;BME280;4654;43.242;27.976;2022-07-09T10:57:27;98782.41;;;28.91;43.36
9239;BME280;4654;43.242;27.976;2022-07-09T10:59:54;98774.94;;;28.62;43.29
9239;BME280;4654;43.242;27.976;2022-07-09T11:02:21;98774.09;;;28.72;43.95
9239;BME280;4654;43.242;27.976;2022-07-09T11:04:49;98772.03;;;28.83;44.41
9239;BME280;4654;43.242;27.976;2022-07-09T11:07:21;98775.03;;;28.95;43.79
9239;BME280;4654;43.242;27.976;2022-07-09T11:09:51;98772.50;;;29.15;44.49
9239;BME280;4654;43.242;27.976;2022-07-09T11:12:18;98765.28;;;29.01;42.82
9239;BME280;4654;43.242;27.976;2022-07-09T11:14:46;98762.34;;;28.85;42.96
9239;BME280;4654;43.242;27.976;2022-07-09T11:17:14;98756.69;;;28.73;43.48
9239;BME280;4654;43.242;27.976;2022-07-09T11:19:41;98756.94;;;28.89;44.29
9239;BME280;4654;43.242;27.976;2022-07-09T11:22:08;98750.69;;;28.92;44.20
9239;BME280;4654;43.242;27.976;2022-07-09T11:24:35;98759.88;;;29.01;43.24
9239;BME280;4654;43.242;27.976;2022-07-09T11:27:06;98761.16;;;28.86;41.94
9239;BME280;4654;43.242;27.976;2022-07-09T11:29:34;98758.88;;;28.85;42.80
9239;BME280;4654;43.242;27.976;2022-07-09T11:32:01;98753.25;;;29.06;43.16
9239;BME280;4654;43.242;27.976;2022-07-09T11:34:28;98751.16;;;28.83;43.19
9239;BME280;4654;43.242;27.976;2022-07-09T11:36:57;98763.31;;;28.65;43.23
9239;BME280;4654;43.242;27.976;2022-07-09T11:39:26;98749.53;;;28.53;42.51
9239;BME280;4654;43.242;27.976;2022-07-09T11:41:54;98749.78;;;28.65;42.86
9239;BME280;4654;43.242;27.976;2022-07-09T11:44:24;98750.91;;;28.71;42.90
9239;BME280;4654;43.242;27.976;2022-07-09T11:47:15;98764.38;;;28.78;43.03
9239;BME280;4654;43.242;27.976;2022-07-09T11:49:46;98736.50;;;28.81;43.11
9239;BME280;4654;43.242;27.976;2022-07-09T11:52:20;98746.28;;;29.05;43.12
9239;BME280;4654;43.242;27.976;2022-07-09T11:54:57;98739.66;;;29.09;43.70
9239;BME280;4654;43.242;27.976;2022-07-09T11:57:24;98729.44;;;29.24;43.50
9239;BME280;4654;43.242;27.976;2022-07-09T11:59:53;98734.78;;;29.27;42.25
9239;BME280;4654;43.242;27.976;2022-07-09T12:02:25;98723.81;;;29.08;42.35
9239;BME280;4654;43.242;27.976;2022-07-09T12:04:52;98736.69;;;29.30;43.11
9239;BME280;4654;43.242;27.976;2022-07-09T12:07:19;98726.28;;;29.29;42.43
9239;BME280;4654;43.242;27.976;2022-07-09T12:09:46;98717.72;;;29.30;42.63
9239;BME280;4654;43.242;27.976;2022-07-09T12:12:23;98726.50;;;29.41;43.13
9239;BME280;4654;43.242;27.976;2022-07-09T12:14:50;98724.28;;;29.33;42.88
9239;BME280;4654;43.242;27.976;2022-07-09T12:17:19;98709.38;;;29.51;43.46
9239;BME280;4654;43.242;27.976;2022-07-09T12:19:46;98706.78;;;29.67;42.56
9239;BME280;4654;43.242;27.976;2022-07-09T12:22:14;98711.75;;;29.72;42.29
9239;BME280;4654;43.242;27.976;2022-07-09T12:24:40;98714.81;;;29.48;42.32
9239;BME280;4654;43.242;27.976;2022-07-09T12:27:08;98702.25;;;29.31;43.11
9239;BME280;4654;43.242;27.976;2022-07-09T12:29:35;98707.69;;;29.61;43.02
9239;BME280;4654;43.242;27.976;2022-07-09T12:32:03;98706.53;;;29.85;42.57
9239;BME280;4654;43.242;27.976;2022-07-09T12:34:31;98699.84;;;29.66;43.16
9239;BME280;4654;43.242;27.976;2022-07-09T12:36:58;98708.53;;;29.81;42.40
9239;BME280;4654;43.242;27.976;2022-07-09T12:39:26;98701.38;;;29.67;42.29
9239;BME280;4654;43.242;27.976;2022-07-09T12:41:53;98707.78;;;29.80;41.89
9239;BME280;4654;43.242;27.976;2022-07-09T12:44:19;98704.31;;;29.76;41.79
9239;BME280;4654;43.242;27.976;2022-07-09T12:46:47;98703.16;;;29.51;42.46
9239;BME280;4654;43.242;27.976;2022-07-09T12:49:13;98689.69;;;29.47;42.26
9239;BME280;4654;43.242;27.976;2022-07-09T12:51:42;98682.97;;;29.82;42.93
9239;BME280;4654;43.242;27.976;2022-07-09T12:54:09;98686.66;;;30.18;42.02
9239;BME280;4654;43.242;27.976;2022-07-09T12:56:36;98690.63;;;30.33;41.38
9239;BME280;4654;43.242;27.976;2022-07-09T12:59:03;98686.81;;;30.30;41.60
9239;BME280;4654;43.242;27.976;2022-07-09T13:01:30;98677.50;;;30.31;41.80
9239;BME280;4654;43.242;27.976;2022-07-09T13:03:57;98683.75;;;30.28;41.47
9239;BME280;4654;43.242;27.976;2022-07-09T13:06:24;98677.34;;;30.19;41.03
9239;BME280;4654;43.242;27.976;2022-07-09T13:09:03;98681.88;;;30.25;41.57
9239;BME280;4654;43.242;27.976;2022-07-09T13:11:31;98668.47;;;30.38;41.08
9239;BME280;4654;43.242;27.976;2022-07-09T13:13:58;98675.16;;;30.33;40.82